Bonds Corner, California
Current Conditions -  °F | °C
As of 9:53 PM on Tuesday 21 Oct 2014 (Local Time) from MMML Reporting Station
Clear Clear  
Wind Chill: 77°   Ceiling: Unl
Heat Index: 79°   Visibility: 10mi
Dew Point: 59°   Wind: 5mph
Humidity: 54%   Direction: 160°SSE
Pressure: 29.77"   Gusts: NA
Location:  32.7753°N, 115.299°W
Report Text: MMML 220453Z 16004KT 10SM SKC 25/15 A2977 RMK ISOL-CI
Loading
Personal Weather Stations






























Interactive Weather Map
Tropical Storm Tracking
New forecast layout! Learn more

10-Day Weather Forecast

Advertisements
Track Severe Weather on mobile